sensor_id;sensor_type;location;lat;lon;timestamp;pressure;altitude;pressure_sealevel;temperature;humidity
77112;BME280;66064;50.226;14.344;2024-02-16T00:01:22;99726.81;;;4.74;100.00
77112;BME280;66064;50.226;14.344;2024-02-16T00:03:48;99735.13;;;4.85;100.00
77112;BME280;66064;50.226;14.344;2024-02-16T00:06:14;99736.63;;;4.78;100.00
77112;BME280;66064;50.226;14.344;2024-02-16T00:08:40;99728.50;;;4.72;100.00
77112;BME280;66064;50.226;14.344;2024-02-16T00:11:06;99726.94;;;4.77;100.00
77112;BME280;66064;50.226;14.344;2024-02-16T00:13:32;99715.72;;;4.83;100.00
77112;BME280;66064;50.226;14.344;2024-02-16T00:15:57;99703.09;;;4.74;100.00
77112;BME280;66064;50.226;14.344;2024-02-16T00:18:24;99710.28;;;4.78;100.00
77112;BME280;66064;50.226;14.344;2024-02-16T00:20:49;99702.97;;;4.71;100.00
77112;BME280;66064;50.226;14.344;2024-02-16T00:23:15;99708.34;;;4.74;100.00
77112;BME280;66064;50.226;14.344;2024-02-16T00:25:41;99703.84;;;4.70;100.00
77112;BME280;66064;50.226;14.344;2024-02-16T00:28:08;99692.94;;;4.61;100.00
77112;BME280;66064;50.226;14.344;2024-02-16T00:30:34;99706.00;;;4.58;100.00
77112;BME280;66064;50.226;14.344;2024-02-16T00:33:00;99699.41;;;4.45;100.00
77112;BME280;66064;50.226;14.344;2024-02-16T00:35:26;99708.72;;;4.36;100.00
77112;BME280;66064;50.226;14.344;2024-02-16T00:37:52;99699.75;;;4.31;100.00
77112;BME280;66064;50.226;14.344;2024-02-16T00:40:18;99692.81;;;4.33;100.00
77112;BME280;66064;50.226;14.344;2024-02-16T00:42:44;99691.72;;;4.28;100.00
77112;BME280;66064;50.226;14.344;2024-02-16T00:45:10;99699.88;;;4.34;100.00
77112;BME280;66064;50.226;14.344;2024-02-16T00:47:36;99685.44;;;4.24;100.00
77112;BME280;66064;50.226;14.344;2024-02-16T00:50:03;99705.59;;;4.23;100.00
77112;BME280;66064;50.226;14.344;2024-02-16T00:52:31;99699.41;;;4.21;100.00
77112;BME280;66064;50.226;14.344;2024-02-16T00:54:57;99703.66;;;4.18;100.00
77112;BME280;66064;50.226;14.344;2024-02-16T00:57:23;99703.47;;;4.13;100.00
77112;BME280;66064;50.226;14.344;2024-02-16T00:59:49;99708.56;;;4.09;100.00
77112;BME280;66064;50.226;14.344;2024-02-16T01:02:15;99693.09;;;3.94;100.00
77112;BME280;66064;50.226;14.344;2024-02-16T01:04:42;99705.06;;;3.86;100.00
77112;BME280;66064;50.226;14.344;2024-02-16T01:07:09;99701.72;;;3.68;100.00
77112;BME280;66064;50.226;14.344;2024-02-16T01:09:35;99690.47;;;3.72;100.00
77112;BME280;66064;50.226;14.344;2024-02-16T01:12:01;99699.22;;;3.71;100.00
77112;BME280;66064;50.226;14.344;2024-02-16T01:14:26;99695.41;;;3.64;100.00
77112;BME280;66064;50.226;14.344;2024-02-16T01:16:52;99698.81;;;3.62;100.00
77112;BME280;66064;50.226;14.344;2024-02-16T01:19:19;99705.69;;;3.58;100.00
77112;BME280;66064;50.226;14.344;2024-02-16T01:21:45;99699.38;;;3.53;100.00
77112;BME280;66064;50.226;14.344;2024-02-16T01:24:17;99693.00;;;3.48;100.00
77112;BME280;66064;50.226;14.344;2024-02-16T01:26:43;99693.84;;;3.47;100.00
77112;BME280;66064;50.226;14.344;2024-02-16T01:29:09;99700.84;;;3.46;100.00
77112;BME280;66064;50.226;14.344;2024-02-16T01:31:35;99697.84;;;3.37;100.00
77112;BME280;66064;50.226;14.344;2024-02-16T01:34:02;99710.19;;;3.38;100.00
77112;BME280;66064;50.226;14.344;2024-02-16T01:36:28;99705.47;;;3.31;100.00
77112;BME280;66064;50.226;14.344;2024-02-16T01:38:54;99701.38;;;3.17;100.00
77112;BME280;66064;50.226;14.344;2024-02-16T01:41:20;99697.09;;;3.19;100.00
77112;BME280;66064;50.226;14.344;2024-02-16T01:43:47;99693.50;;;3.17;100.00
77112;BME280;66064;50.226;14.344;2024-02-16T01:46:13;99698.50;;;3.11;100.00
77112;BME280;66064;50.226;14.344;2024-02-16T01:48:39;99711.22;;;3.21;100.00
77112;BME280;66064;50.226;14.344;2024-02-16T01:51:07;99706.66;;;3.17;100.00
77112;BME280;66064;50.226;14.344;2024-02-16T01:53:35;99710.09;;;3.16;100.00
77112;BME280;66064;50.226;14.344;2024-02-16T01:56:02;99698.69;;;3.15;100.00
77112;BME280;66064;50.226;14.344;2024-02-16T01:58:29;99702.03;;;3.32;100.00
77112;BME280;66064;50.226;14.344;2024-02-16T02:00:55;99698.09;;;3.43;100.00
77112;BME280;66064;50.226;14.344;2024-02-16T02:03:20;99690.88;;;3.60;100.00
77112;BME280;66064;50.226;14.344;2024-02-16T02:05:49;99693.81;;;3.68;100.00
77112;BME280;66064;50.226;14.344;2024-02-16T02:08:17;99693.31;;;3.78;100.00
77112;BME280;66064;50.226;14.344;2024-02-16T02:10:43;99689.16;;;3.83;100.00
77112;BME280;66064;50.226;14.344;2024-02-16T02:13:09;99689.41;;;3.89;100.00
77112;BME280;66064;50.226;14.344;2024-02-16T02:15:36;99694.28;;;4.02;100.00
77112;BME280;66064;50.226;14.344;2024-02-16T02:18:02;99691.88;;;4.08;100.00
77112;BME280;66064;50.226;14.344;2024-02-16T02:20:28;99687.03;;;4.19;100.00
77112;BME280;66064;50.226;14.344;2024-02-16T02:22:53;99681.00;;;4.23;100.00
77112;BME280;66064;50.226;14.344;2024-02-16T02:25:19;99670.59;;;4.26;100.00
77112;BME280;66064;50.226;14.344;2024-02-16T02:27:45;99674.91;;;4.24;100.00
77112;BME280;66064;50.226;14.344;2024-02-16T02:30:12;99679.44;;;4.28;100.00
77112;BME280;66064;50.226;14.344;2024-02-16T02:32:38;99666.22;;;4.27;100.00
77112;BME280;66064;50.226;14.344;2024-02-16T02:35:05;99666.09;;;4.23;100.00
77112;BME280;66064;50.226;14.344;2024-02-16T02:37:31;99654.28;;;4.12;100.00
77112;BME280;66064;50.226;14.344;2024-02-16T02:39:57;99659.22;;;4.27;100.00
77112;BME280;66064;50.226;14.344;2024-02-16T02:42:23;99661.91;;;4.29;100.00
77112;BME280;66064;50.226;14.344;2024-02-16T02:44:49;99655.81;;;4.30;100.00
77112;BME280;66064;50.226;14.344;2024-02-16T02:47:17;99659.50;;;4.35;100.00
77112;BME280;66064;50.226;14.344;2024-02-16T02:49:43;99656.75;;;4.32;100.00
77112;BME280;66064;50.226;14.344;2024-02-16T02:52:09;99655.06;;;4.34;100.00
77112;BME280;66064;50.226;14.344;2024-02-16T02:54:36;99641.78;;;4.31;100.00
77112;BME280;66064;50.226;14.344;2024-02-16T02:57:02;99654.28;;;4.36;100.00
77112;BME280;66064;50.226;14.344;2024-02-16T02:59:29;99652.63;;;4.38;100.00
77112;BME280;66064;50.226;14.344;2024-02-16T03:01:54;99637.59;;;4.36;100.00
77112;BME280;66064;50.226;14.344;2024-02-16T03:04:20;99641.19;;;4.38;100.00
77112;BME280;66064;50.226;14.344;2024-02-16T03:06:46;99644.13;;;4.47;100.00
77112;BME280;66064;50.226;14.344;2024-02-16T03:09:12;99649.50;;;4.50;100.00
77112;BME280;66064;50.226;14.344;2024-02-16T03:11:39;99653.06;;;4.50;100.00
77112;BME280;66064;50.226;14.344;2024-02-16T03:14:05;99660.06;;;4.50;100.00
77112;BME280;66064;50.226;14.344;2024-02-16T03:16:32;99663.13;;;4.62;100.00
77112;BME280;66064;50.226;14.344;2024-02-16T03:18:58;99651.44;;;4.54;100.00
77112;BME280;66064;50.226;14.344;2024-02-16T03:21:24;99654.97;;;4.56;100.00
77112;BME280;66064;50.226;14.344;2024-02-16T03:23:50;99648.69;;;4.51;100.00
77112;BME280;66064;50.226;14.344;2024-02-16T03:26:18;99649.28;;;4.44;100.00
77112;BME280;66064;50.226;14.344;2024-02-16T03:28:45;99648.06;;;4.34;100.00
77112;BME280;66064;50.226;14.344;2024-02-16T03:31:21;99649.94;;;4.37;100.00
77112;BME280;66064;50.226;14.344;2024-02-16T03:33:51;99651.53;;;4.33;100.00
77112;BME280;66064;50.226;14.344;2024-02-16T03:36:18;99650.47;;;4.28;100.00
77112;BME280;66064;50.226;14.344;2024-02-16T03:38:46;99650.41;;;4.27;100.00
77112;BME280;66064;50.226;14.344;2024-02-16T03:41:21;99651.19;;;4.24;100.00
77112;BME280;66064;50.226;14.344;2024-02-16T03:43:48;99645.16;;;4.27;100.00
77112;BME280;66064;50.226;14.344;2024-02-16T03:46:15;99632.56;;;4.18;100.00
77112;BME280;66064;50.226;14.344;2024-02-16T03:48:42;99645.03;;;4.23;100.00
77112;BME280;66064;50.226;14.344;2024-02-16T03:51:10;99640.50;;;4.19;100.00
77112;BME280;66064;50.226;14.344;2024-02-16T03:53:36;99628.72;;;4.10;100.00
77112;BME280;66064;50.226;14.344;2024-02-16T03:56:02;99623.19;;;4.02;100.00
77112;BME280;66064;50.226;14.344;2024-02-16T03:58:29;99635.53;;;4.03;100.00
77112;BME280;66064;50.226;14.344;2024-02-16T04:00:54;99615.84;;;3.94;100.00
77112;BME280;66064;50.226;14.344;2024-02-16T04:03:21;99651.72;;;3.92;100.00
77112;BME280;66064;50.226;14.344;2024-02-16T04:05:47;99637.16;;;3.77;100.00
77112;BME280;66064;50.226;14.344;2024-02-16T04:08:13;99650.16;;;3.73;100.00
77112;BME280;66064;50.226;14.344;2024-02-16T04:10:39;99650.81;;;3.67;100.00
77112;BME280;66064;50.226;14.344;2024-02-16T04:13:05;99655.69;;;3.58;100.00
77112;BME280;66064;50.226;14.344;2024-02-16T04:15:33;99656.25;;;3.49;100.00
77112;BME280;66064;50.226;14.344;2024-02-16T04:17:59;99661.25;;;3.43;100.00
77112;BME280;66064;50.226;14.344;2024-02-16T04:20:25;99678.84;;;3.44;100.00
77112;BME280;66064;50.226;14.344;2024-02-16T04:22:51;99668.66;;;3.31;100.00
77112;BME280;66064;50.226;14.344;2024-02-16T04:25:17;99679.31;;;3.34;100.00
77112;BME280;66064;50.226;14.344;2024-02-16T04:27:43;99676.41;;;3.28;100.00
77112;BME280;66064;50.226;14.344;2024-02-16T04:30:09;99690.78;;;3.36;100.00
77112;BME280;66064;50.226;14.344;2024-02-16T04:32:35;99690.78;;;3.36;100.00
77112;BME280;66064;50.226;14.344;2024-02-16T04:35:01;99675.00;;;3.36;100.00
77112;BME280;66064;50.226;14.344;2024-02-16T04:37:28;99686.66;;;3.43;100.00
77112;BME280;66064;50.226;14.344;2024-02-16T04:39:54;99683.88;;;3.38;100.00
77112;BME280;66064;50.226;14.344;2024-02-16T04:42:20;99672.81;;;3.47;100.00
77112;BME280;66064;50.226;14.344;2024-02-16T04:44:46;99679.28;;;3.55;100.00
77112;BME280;66064;50.226;14.344;2024-02-16T04:47:12;99666.63;;;3.46;100.00
77112;BME280;66064;50.226;14.344;2024-02-16T04:49:39;99672.81;;;3.47;100.00
77112;BME280;66064;50.226;14.344;2024-02-16T04:52:05;99677.34;;;3.51;100.00
77112;BME280;66064;50.226;14.344;2024-02-16T04:54:31;99672.28;;;3.56;100.00
77112;BME280;66064;50.226;14.344;2024-02-16T04:56:57;99668.00;;;3.59;100.00
77112;BME280;66064;50.226;14.344;2024-02-16T04:59:22;99662.66;;;3.56;100.00
77112;BME280;66064;50.226;14.344;2024-02-16T05:01:49;99667.84;;;3.55;100.00
77112;BME280;66064;50.226;14.344;2024-02-16T05:04:15;99635.75;;;3.41;100.00
77112;BME280;66064;50.226;14.344;2024-02-16T05:06:43;99662.16;;;3.44;100.00
77112;BME280;66064;50.226;14.344;2024-02-16T05:09:12;99657.56;;;3.38;100.00
77112;BME280;66064;50.226;14.344;2024-02-16T05:11:43;99658.47;;;3.39;100.00
77112;BME280;66064;50.226;14.344;2024-02-16T05:14:10;99655.47;;;3.52;100.00
77112;BME280;66064;50.226;14.344;2024-02-16T05:16:45;99641.88;;;3.64;100.00
77112;BME280;66064;50.226;14.344;2024-02-16T05:19:11;99627.56;;;3.56;100.00
77112;BME280;66064;50.226;14.344;2024-02-16T05:21:37;99636.94;;;3.49;100.00
77112;BME280;66064;50.226;14.344;2024-02-16T05:24:03;99648.72;;;3.36;100.00
77112;BME280;66064;50.226;14.344;2024-02-16T05:26:30;99633.16;;;3.20;100.00
77112;BME280;66064;50.226;14.344;2024-02-16T05:28:56;99655.03;;;3.19;100.00
77112;BME280;66064;50.226;14.344;2024-02-16T05:31:22;99667.00;;;3.12;100.00
77112;BME280;66064;50.226;14.344;2024-02-16T05:33:49;99678.50;;;3.14;100.00
77112;BME280;66064;50.226;14.344;2024-02-16T05:36:19;99682.84;;;3.14;100.00
77112;BME280;66064;50.226;14.344;2024-02-16T05:38:49;99662.66;;;3.13;100.00
77112;BME280;66064;50.226;14.344;2024-02-16T05:41:18;99672.97;;;3.29;100.00
77112;BME280;66064;50.226;14.344;2024-02-16T05:43:44;99681.88;;;3.33;100.00
77112;BME280;66064;50.226;14.344;2024-02-16T05:46:14;99685.41;;;3.33;100.00
77112;BME280;66064;50.226;14.344;2024-02-16T05:48:42;99682.78;;;3.33;100.00
77112;BME280;66064;50.226;14.344;2024-02-16T05:51:08;99671.22;;;3.30;100.00
77112;BME280;66064;50.226;14.344;2024-02-16T05:53:35;99678.47;;;3.35;100.00
77112;BME280;66064;50.226;14.344;2024-02-16T05:56:01;99690.03;;;3.39;100.00
77112;BME280;66064;50.226;14.344;2024-02-16T05:58:27;99689.34;;;3.44;100.00
77112;BME280;66064;50.226;14.344;2024-02-16T06:00:55;99680.63;;;3.45;100.00
77112;BME280;66064;50.226;14.344;2024-02-16T06:03:20;99679.94;;;3.49;100.00
77112;BME280;66064;50.226;14.344;2024-02-16T06:05:47;99683.31;;;3.47;100.00
77112;BME280;66064;50.226;14.344;2024-02-16T06:08:14;99688.66;;;3.48;100.00
77112;BME280;66064;50.226;14.344;2024-02-16T06:10:41;99677.56;;;3.56;100.00
77112;BME280;66064;50.226;14.344;2024-02-16T06:13:08;99655.53;;;3.54;100.00
77112;BME280;66064;50.226;14.344;2024-02-16T06:15:34;99671.44;;;3.57;100.00
77112;BME280;66064;50.226;14.344;2024-02-16T06:18:01;99674.84;;;3.54;100.00
77112;BME280;66064;50.226;14.344;2024-02-16T06:20:27;99678.25;;;3.51;100.00
77112;BME280;66064;50.226;14.344;2024-02-16T06:22:53;99670.44;;;3.53;100.00
77112;BME280;66064;50.226;14.344;2024-02-16T06:25:19;99681.16;;;3.59;100.00
77112;BME280;66064;50.226;14.344;2024-02-16T06:27:45;99681.50;;;3.67;100.00
77112;BME280;66064;50.226;14.344;2024-02-16T06:30:11;99674.38;;;3.64;100.00
77112;BME280;66064;50.226;14.344;2024-02-16T06:32:39;99682.56;;;3.72;100.00
77112;BME280;66064;50.226;14.344;2024-02-16T06:35:08;99692.31;;;3.74;100.00
77112;BME280;66064;50.226;14.344;2024-02-16T06:37:35;99699.22;;;3.71;100.00
77112;BME280;66064;50.226;14.344;2024-02-16T06:40:03;99709.94;;;3.77;100.00
77112;BME280;66064;50.226;14.344;2024-02-16T06:42:30;99708.91;;;3.72;100.00
77112;BME280;66064;50.226;14.344;2024-02-16T06:44:56;99705.00;;;3.84;100.00
77112;BME280;66064;50.226;14.344;2024-02-16T06:47:22;99706.44;;;3.99;100.00
77112;BME280;66064;50.226;14.344;2024-02-16T06:49:51;99715.94;;;3.95;100.00
77112;BME280;66064;50.226;14.344;2024-02-16T06:52:17;99712.72;;;4.02;100.00
77112;BME280;66064;50.226;14.344;2024-02-16T06:54:43;99730.06;;;4.19;100.00
77112;BME280;66064;50.226;14.344;2024-02-16T06:57:09;99713.69;;;4.28;100.00
77112;BME280;66064;50.226;14.344;2024-02-16T06:59:35;99707.53;;;4.28;100.00
77112;BME280;66064;50.226;14.344;2024-02-16T07:02:01;99714.09;;;4.39;100.00
77112;BME280;66064;50.226;14.344;2024-02-16T07:04:28;99717.91;;;4.47;100.00
77112;BME280;66064;50.226;14.344;2024-02-16T07:06:54;99712.97;;;4.56;100.00
77112;BME280;66064;50.226;14.344;2024-02-16T07:09:19;99710.94;;;4.73;100.00
77112;BME280;66064;50.226;14.344;2024-02-16T07:11:48;99712.38;;;4.88;100.00
77112;BME280;66064;50.226;14.344;2024-02-16T07:14:16;99702.16;;;4.98;100.00
77112;BME280;66064;50.226;14.344;2024-02-16T07:16:42;99708.28;;;4.97;100.00
77112;BME280;66064;50.226;14.344;2024-02-16T07:19:08;99713.91;;;5.07;100.00
77112;BME280;66064;50.226;14.344;2024-02-16T07:21:34;99707.84;;;5.10;100.00
77112;BME280;66064;50.226;14.344;2024-02-16T07:24:00;99710.59;;;5.13;100.00
77112;BME280;66064;50.226;14.344;2024-02-16T07:26:27;99715.97;;;5.16;100.00
77112;BME280;66064;50.226;14.344;2024-02-16T07:28:53;99721.88;;;5.34;100.00
77112;BME280;66064;50.226;14.344;2024-02-16T07:31:19;99721.34;;;5.44;100.00
77112;BME280;66064;50.226;14.344;2024-02-16T07:33:45;99717.44;;;5.60;100.00
77112;BME280;66064;50.226;14.344;2024-02-16T07:36:11;99708.41;;;5.53;100.00
77112;BME280;66064;50.226;14.344;2024-02-16T07:38:37;99708.84;;;5.66;100.00
77112;BME280;66064;50.226;14.344;2024-02-16T07:41:03;99721.41;;;6.00;100.00
77112;BME280;66064;50.226;14.344;2024-02-16T07:43:31;99727.09;;;6.13;100.00
77112;BME280;66064;50.226;14.344;2024-02-16T07:45:57;99734.22;;;6.16;100.00
77112;BME280;66064;50.226;14.344;2024-02-16T07:48:23;99740.16;;;6.09;100.00
77112;BME280;66064;50.226;14.344;2024-02-16T07:50:49;99742.50;;;6.28;100.00
77112;BME280;66064;50.226;14.344;2024-02-16T07:53:16;99737.44;;;6.36;100.00
77112;BME280;66064;50.226;14.344;2024-02-16T07:55:43;99733.53;;;6.53;100.00
77112;BME280;66064;50.226;14.344;2024-02-16T07:58:10;99734.88;;;6.68;100.00
77112;BME280;66064;50.226;14.344;2024-02-16T08:00:36;99717.81;;;6.89;100.00
77112;BME280;66064;50.226;14.344;2024-02-16T08:03:02;99735.63;;;6.94;100.00
77112;BME280;66064;50.226;14.344;2024-02-16T08:05:28;99729.53;;;6.98;100.00
77112;BME280;66064;50.226;14.344;2024-02-16T08:07:54;99724.59;;;7.11;100.00
77112;BME280;66064;50.226;14.344;2024-02-16T08:10:20;99731.91;;;7.21;100.00
77112;BME280;66064;50.226;14.344;2024-02-16T08:12:47;99721.19;;;9.10;100.00
77112;BME280;66064;50.226;14.344;2024-02-16T08:15:13;99724.09;;;11.05;85.11
77112;BME280;66064;50.226;14.344;2024-02-16T08:17:40;99718.78;;;11.06;83.16
77112;BME280;66064;50.226;14.344;2024-02-16T08:20:06;99718.47;;;10.76;83.14
77112;BME280;66064;50.226;14.344;2024-02-16T08:22:32;99719.47;;;9.12;88.30
77112;BME280;66064;50.226;14.344;2024-02-16T08:24:59;99727.75;;;8.84;92.41
77112;BME280;66064;50.226;14.344;2024-02-16T08:27:26;99730.59;;;8.10;94.85
77112;BME280;66064;50.226;14.344;2024-02-16T08:29:52;99717.06;;;7.99;95.27
77112;BME280;66064;50.226;14.344;2024-02-16T08:32:18;99705.88;;;7.73;98.11
77112;BME280;66064;50.226;14.344;2024-02-16T08:34:46;99691.41;;;7.97;97.85
77112;BME280;66064;50.226;14.344;2024-02-16T08:37:14;99686.25;;;8.03;98.17
77112;BME280;66064;50.226;14.344;2024-02-16T08:39:41;99697.47;;;7.91;97.94
77112;BME280;66064;50.226;14.344;2024-02-16T08:42:07;99699.56;;;8.44;96.67
77112;BME280;66064;50.226;14.344;2024-02-16T08:44:42;99696.25;;;9.50;90.85
77112;BME280;66064;50.226;14.344;2024-02-16T08:47:08;99706.41;;;8.77;91.47
77112;BME280;66064;50.226;14.344;2024-02-16T08:49:34;99695.59;;;8.67;94.05
77112;BME280;66064;50.226;14.344;2024-02-16T08:52:01;99705.31;;;8.26;95.06
77112;BME280;66064;50.226;14.344;2024-02-16T08:54:27;99706.69;;;8.48;94.83
77112;BME280;66064;50.226;14.344;2024-02-16T08:56:53;99710.31;;;8.51;94.23
77112;BME280;66064;50.226;14.344;2024-02-16T08:59:20;99721.00;;;8.17;94.97
77112;BME280;66064;50.226;14.344;2024-02-16T09:01:46;99714.81;;;8.16;96.31
77112;BME280;66064;50.226;14.344;2024-02-16T09:04:12;99719.97;;;8.49;94.43
77112;BME280;66064;50.226;14.344;2024-02-16T09:06:38;99711.94;;;8.88;92.24
77112;BME280;66064;50.226;14.344;2024-02-16T09:09:04;99728.81;;;8.93;91.09
77112;BME280;66064;50.226;14.344;2024-02-16T09:11:33;99718.97;;;8.86;91.66
77112;BME280;66064;50.226;14.344;2024-02-16T09:14:02;99731.69;;;8.59;92.95
77112;BME280;66064;50.226;14.344;2024-02-16T09:16:28;99721.25;;;8.27;94.55
77112;BME280;66064;50.226;14.344;2024-02-16T09:18:54;99731.06;;;8.31;95.84
77112;BME280;66064;50.226;14.344;2024-02-16T09:21:20;99730.78;;;8.19;95.30
77112;BME280;66064;50.226;14.344;2024-02-16T09:23:46;99742.47;;;8.27;95.33
77112;BME280;66064;50.226;14.344;2024-02-16T09:26:12;99726.06;;;8.44;94.98
77112;BME280;66064;50.226;14.344;2024-02-16T09:28:41;99732.19;;;8.41;94.70
77112;BME280;66064;50.226;14.344;2024-02-16T09:31:08;99718.72;;;8.72;94.25
77112;BME280;66064;50.226;14.344;2024-02-16T09:33:34;99715.59;;;8.95;92.49
77112;BME280;66064;50.226;14.344;2024-02-16T09:36:03;99723.34;;;8.84;92.78
77112;BME280;66064;50.226;14.344;2024-02-16T09:38:30;99729.78;;;8.97;91.59
77112;BME280;66064;50.226;14.344;2024-02-16T09:40:57;99723.34;;;8.84;92.04
77112;BME280;66064;50.226;14.344;2024-02-16T09:43:28;99724.13;;;9.24;90.08
77112;BME280;66064;50.226;14.344;2024-02-16T09:45:58;99721.50;;;9.27;90.01
77112;BME280;66064;50.226;14.344;2024-02-16T09:48:28;99714.56;;;9.88;86.73
77112;BME280;66064;50.226;14.344;2024-02-16T09:50:55;99713.47;;;10.32;84.62
77112;BME280;66064;50.226;14.344;2024-02-16T09:53:25;99728.03;;;10.62;81.96
77112;BME280;66064;50.226;14.344;2024-02-16T09:55:52;99716.84;;;10.90;81.16
77112;BME280;66064;50.226;14.344;2024-02-16T09:58:18;99722.56;;;10.49;82.61
77112;BME280;66064;50.226;14.344;2024-02-16T10:03:27;99730.75;;;10.03;84.68
77112;BME280;66064;50.226;14.344;2024-02-16T10:06:12;99718.72;;;9.70;86.41
77112;BME280;66064;50.226;14.344;2024-02-16T10:08:51;99724.47;;;9.45;87.30
77112;BME280;66064;50.226;14.344;2024-02-16T10:11:19;99726.31;;;9.49;87.36
77112;BME280;66064;50.226;14.344;2024-02-16T10:13:59;99736.66;;;9.83;86.55
77112;BME280;66064;50.226;14.344;2024-02-16T10:16:29;99743.44;;;9.66;86.40
77112;BME280;66064;50.226;14.344;2024-02-16T10:18:56;99724.47;;;9.45;88.46
77112;BME280;66064;50.226;14.344;2024-02-16T10:21:29;99731.41;;;9.35;87.00
77112;BME280;66064;50.226;14.344;2024-02-16T10:24:21;99729.59;;;9.33;88.39
77112;BME280;66064;50.226;14.344;2024-02-16T10:26:47;99724.28;;;9.33;88.49
77112;BME280;66064;50.226;14.344;2024-02-16T10:29:17;99728.34;;;9.64;87.19
77112;BME280;66064;50.226;14.344;2024-02-16T10:31:45;99726.38;;;9.52;87.16
77112;BME280;66064;50.226;14.344;2024-02-16T10:34:11;99711.16;;;9.43;87.34
77112;BME280;66064;50.226;14.344;2024-02-16T10:36:39;99722.06;;;9.57;87.21
77112;BME280;66064;50.226;14.344;2024-02-16T10:39:06;99712.47;;;9.67;87.81
77112;BME280;66064;50.226;14.344;2024-02-16T10:41:39;99720.16;;;9.52;86.58
77112;BME280;66064;50.226;14.344;2024-02-16T10:44:06;99700.19;;;9.76;86.30
77112;BME280;66064;50.226;14.344;2024-02-16T10:46:32;99709.00;;;9.72;85.45
77112;BME280;66064;50.226;14.344;2024-02-16T10:49:00;99700.25;;;9.79;85.84
77112;BME280;66064;50.226;14.344;2024-02-16T10:51:37;99704.22;;;10.06;85.10
77112;BME280;66064;50.226;14.344;2024-02-16T10:54:05;99707.13;;;10.21;83.88
77112;BME280;66064;50.226;14.344;2024-02-16T10:56:37;99681.81;;;9.92;83.43
77112;BME280;66064;50.226;14.344;2024-02-16T10:59:04;99692.13;;;10.28;83.29
77112;BME280;66064;50.226;14.344;2024-02-16T11:01:42;99693.56;;;10.06;83.51
77112;BME280;66064;50.226;14.344;2024-02-16T11:04:13;99681.84;;;10.55;81.88
77112;BME280;66064;50.226;14.344;2024-02-16T11:09:29;99681.91;;;11.46;77.06
77112;BME280;66064;50.226;14.344;2024-02-16T11:12:00;99686.78;;;11.99;76.58
77112;BME280;66064;50.226;14.344;2024-02-16T11:14:39;99683.13;;;11.87;75.45
77112;BME280;66064;50.226;14.344;2024-02-16T11:17:12;99668.53;;;12.93;71.62
77112;BME280;66064;50.226;14.344;2024-02-16T11:19:43;99674.78;;;12.98;71.51
77112;BME280;66064;50.226;14.344;2024-02-16T11:22:10;99658.81;;;13.25;71.21
77112;BME280;66064;50.226;14.344;2024-02-16T11:24:48;99652.72;;;15.45;63.41
77112;BME280;66064;50.226;14.344;2024-02-16T11:27:15;99646.78;;;17.45;57.05
77112;BME280;66064;50.226;14.344;2024-02-16T11:29:45;99648.59;;;18.00;53.77
77112;BME280;66064;50.226;14.344;2024-02-16T11:32:12;99643.88;;;18.56;52.16
77112;BME280;66064;50.226;14.344;2024-02-16T11:34:38;99650.34;;;18.90;52.44
77112;BME280;66064;50.226;14.344;2024-02-16T11:37:05;99645.72;;;19.35;49.91
77112;BME280;66064;50.226;14.344;2024-02-16T11:39:31;99636.38;;;19.50;49.49
77112;BME280;66064;50.226;14.344;2024-02-16T11:42:12;99631.69;;;20.26;47.95
77112;BME280;66064;50.226;14.344;2024-02-16T11:44:40;99638.47;;;21.03;46.46
77112;BME280;66064;50.226;14.344;2024-02-16T11:47:19;99630.25;;;19.43;48.08
77112;BME280;66064;50.226;14.344;2024-02-16T11:50:11;99655.06;;;18.80;49.43
77112;BME280;66064;50.226;14.344;2024-02-16T11:52:41;99647.94;;;18.33;51.90
77112;BME280;66064;50.226;14.344;2024-02-16T11:55:13;99628.47;;;19.04;49.28
77112;BME280;66064;50.226;14.344;2024-02-16T11:57:41;99624.00;;;20.11;48.53
77112;BME280;66064;50.226;14.344;2024-02-16T12:00:08;99615.59;;;19.53;48.25
77112;BME280;66064;50.226;14.344;2024-02-16T12:02:36;99629.03;;;20.57;46.84
77112;BME280;66064;50.226;14.344;2024-02-16T12:05:03;99619.91;;;21.20;46.64
77112;BME280;66064;50.226;14.344;2024-02-16T12:07:31;99609.63;;;21.31;45.03
77112;BME280;66064;50.226;14.344;2024-02-16T12:10:02;99622.97;;;19.82;47.32
77112;BME280;66064;50.226;14.344;2024-02-16T12:12:33;99615.53;;;19.56;49.10
77112;BME280;66064;50.226;14.344;2024-02-16T12:14:59;99618.13;;;19.61;49.12
77112;BME280;66064;50.226;14.344;2024-02-16T12:17:25;99624.19;;;19.32;49.55
77112;BME280;66064;50.226;14.344;2024-02-16T12:19:52;99616.03;;;20.39;47.26
77112;BME280;66064;50.226;14.344;2024-02-16T12:22:19;99615.94;;;20.09;47.48
77112;BME280;66064;50.226;14.344;2024-02-16T12:24:46;99618.59;;;18.64;51.05
77112;BME280;66064;50.226;14.344;2024-02-16T12:27:14;99622.78;;;17.87;52.61
77112;BME280;66064;50.226;14.344;2024-02-16T12:29:43;99611.44;;;17.12;55.11
77112;BME280;66064;50.226;14.344;2024-02-16T12:32:09;99625.28;;;16.87;56.09
77112;BME280;66064;50.226;14.344;2024-02-16T12:34:38;99636.28;;;16.70;57.00
77112;BME280;66064;50.226;14.344;2024-02-16T12:37:07;99628.13;;;16.74;56.76
77112;BME280;66064;50.226;14.344;2024-02-16T12:39:34;99617.69;;;16.50;57.35
77112;BME280;66064;50.226;14.344;2024-02-16T12:42:00;99629.75;;;16.13;59.57
77112;BME280;66064;50.226;14.344;2024-02-16T12:44:26;99623.78;;;15.85;60.04
77112;BME280;66064;50.226;14.344;2024-02-16T12:46:52;99620.13;;;15.93;60.08
77112;BME280;66064;50.226;14.344;2024-02-16T12:49:18;99618.72;;;15.56;61.57
77112;BME280;66064;50.226;14.344;2024-02-16T12:51:49;99628.66;;;15.40;62.31
77112;BME280;66064;50.226;14.344;2024-02-16T12:54:15;99637.16;;;14.72;65.70
77112;BME280;66064;50.226;14.344;2024-02-16T12:56:48;99629.72;;;15.13;63.04
77112;BME280;66064;50.226;14.344;2024-02-16T12:59:16;99636.03;;;15.08;62.96